createdAt,value
2018-06-21T00:00:40.631Z,998.74
2018-06-21T00:01:50.709Z,998.72
2018-06-21T00:03:01.013Z,998.7
2018-06-21T00:04:11.097Z,998.71
2018-06-21T00:05:21.163Z,998.71
2018-06-21T00:06:31.231Z,998.73
2018-06-21T00:07:41.298Z,998.67
2018-06-21T00:08:51.390Z,998.71
2018-06-21T00:10:01.469Z,998.71
2018-06-21T00:11:11.547Z,998.7
2018-06-21T00:12:21.635Z,998.66
2018-06-21T00:13:31.715Z,998.65
2018-06-21T00:14:41.784Z,998.64
2018-06-21T00:15:51.583Z,998.63
2018-06-21T00:17:01.410Z,998.65
2018-06-21T00:18:11.484Z,998.63
2018-06-21T00:19:21.637Z,998.65
2018-06-21T00:20:31.707Z,998.61
2018-06-21T00:21:41.788Z,998.62
2018-06-21T00:22:51.865Z,998.61
2018-06-21T00:24:01.953Z,998.64
2018-06-21T00:25:12.055Z,998.7
2018-06-21T00:26:22.143Z,998.64
2018-06-21T00:27:32.216Z,998.63
2018-06-21T00:28:42.287Z,998.65
2018-06-21T00:29:52.121Z,998.64
2018-06-21T00:31:01.937Z,998.61
2018-06-21T00:32:12.021Z,998.58
2018-06-21T00:33:21.824Z,998.6
2018-06-21T00:34:31.899Z,998.57
2018-06-21T00:35:41.984Z,998.55
2018-06-21T00:36:51.534Z,998.56
2018-06-21T00:38:01.366Z,998.59
2018-06-21T00:39:11.463Z,998.59
2018-06-21T00:40:21.293Z,998.61
2018-06-21T00:41:31.114Z,998.55
2018-06-21T00:42:41.187Z,998.63
2018-06-21T00:43:51.251Z,998.56
2018-06-21T00:45:01.062Z,998.58
2018-06-21T00:46:11.149Z,998.56
2018-06-21T00:47:21.222Z,998.52
2018-06-21T00:48:31.031Z,998.58
2018-06-21T00:49:41.110Z,998.53
2018-06-21T00:50:51.172Z,998.51
2018-06-21T00:52:01.243Z,998.52
2018-06-21T00:53:11.057Z,998.5
2018-06-21T00:54:21.150Z,998.48
2018-06-21T00:55:30.955Z,998.44
2018-06-21T00:56:41.020Z,998.46
2018-06-21T00:57:51.083Z,998.48
2018-06-21T00:59:01.166Z,998.45
2018-06-21T01:00:11.233Z,998.44
2018-06-21T01:01:21.311Z,998.43
2018-06-21T01:02:31.155Z,998.42
2018-06-21T01:03:41.240Z,998.4
2018-06-21T01:04:51.316Z,998.37
2018-06-21T01:06:01.398Z,998.34
2018-06-21T01:07:11.499Z,998.35
2018-06-21T01:08:21.573Z,998.33
2018-06-21T01:09:31.656Z,998.34
2018-06-21T01:10:41.732Z,998.31
2018-06-21T01:11:51.611Z,998.31
2018-06-21T01:13:01.468Z,998.32
2018-06-21T01:14:11.539Z,998.34
2018-06-21T01:15:21.624Z,998.3
2018-06-21T01:16:31.444Z,998.3
2018-06-21T01:17:41.299Z,998.29
2018-06-21T01:18:51.123Z,998.31
2018-06-21T01:20:01.190Z,998.28
2018-06-21T01:21:11.285Z,998.27
2018-06-21T01:22:21.362Z,998.27
2018-06-21T01:23:31.175Z,998.26
2018-06-21T01:24:41.242Z,998.26
2018-06-21T01:25:51.322Z,998.28
2018-06-21T01:27:01.403Z,998.26
2018-06-21T01:28:11.488Z,998.24
2018-06-21T01:29:21.293Z,998.26
2018-06-21T01:30:31.384Z,998.24
2018-06-21T01:31:41.471Z,998.24
2018-06-21T01:32:51.543Z,998.22
2018-06-21T01:34:01.640Z,998.22
2018-06-21T01:35:11.716Z,998.22
2018-06-21T01:36:21.774Z,998.22
2018-06-21T01:37:31.584Z,998.24
2018-06-21T01:38:41.669Z,998.22
2018-06-21T01:39:51.481Z,998.19
2018-06-21T01:41:01.333Z,998.17
2018-06-21T01:42:11.411Z,998.16
2018-06-21T01:43:21.245Z,998.16
2018-06-21T01:44:31.368Z,998.16
2018-06-21T01:45:41.442Z,998.18
2018-06-21T01:46:51.305Z,998.2
2018-06-21T01:48:01.112Z,998.2
2018-06-21T01:49:11.188Z,998.16
2018-06-21T01:50:21.265Z,998.16
2018-06-21T01:51:31.336Z,998.16
2018-06-21T01:52:41.423Z,998.14
2018-06-21T01:53:51.504Z,998.13
2018-06-21T01:55:01.311Z,998.06
2018-06-21T01:56:11.393Z,998.13
2018-06-21T01:57:21.459Z,998.09
2018-06-21T01:58:31.300Z,998.05
2018-06-21T01:59:41.369Z,998.08
2018-06-21T02:00:51.449Z,998.06
2018-06-21T02:02:01.517Z,998.05
2018-06-21T02:03:11.592Z,998.02
2018-06-21T02:04:21.687Z,997.99
2018-06-21T02:05:31.785Z,997.97
2018-06-21T02:06:41.860Z,997.94
2018-06-21T02:07:51.943Z,997.95
2018-06-21T02:09:01.828Z,997.95
2018-06-21T02:10:11.918Z,997.96
2018-06-21T02:11:21.993Z,997.95
2018-06-21T02:12:32.068Z,997.98
2018-06-21T02:13:41.885Z,997.98
2018-06-21T02:14:51.964Z,998
2018-06-21T02:16:02.108Z,997.95
2018-06-21T02:17:12.181Z,997.94
2018-06-21T02:18:22.250Z,997.94
2018-06-21T02:19:32.081Z,997.88
2018-06-21T02:20:41.910Z,997.91
2018-06-21T02:21:51.997Z,997.91
2018-06-21T02:23:02.063Z,997.88
2018-06-21T02:24:12.144Z,997.82
2018-06-21T02:25:21.683Z,997.85
2018-06-21T02:26:31.813Z,997.84
2018-06-21T02:27:41.948Z,997.83
2018-06-21T02:28:51.761Z,997.85
2018-06-21T02:30:01.580Z,997.85
2018-06-21T02:31:11.688Z,997.84
2018-06-21T02:32:21.778Z,997.83
2018-06-21T02:33:31.345Z,997.84
2018-06-21T02:34:41.415Z,997.82
2018-06-21T02:35:51.511Z,997.83
2018-06-21T02:37:01.607Z,997.81
2018-06-21T02:38:11.698Z,997.82
2018-06-21T02:39:21.776Z,997.81
2018-06-21T02:40:31.615Z,997.85
2018-06-21T02:41:41.695Z,997.83
2018-06-21T02:42:51.501Z,997.79
2018-06-21T02:44:01.589Z,997.79
2018-06-21T02:45:11.721Z,997.77
2018-06-21T02:46:21.791Z,997.79
2018-06-21T02:47:31.860Z,997.78
2018-06-21T02:48:41.937Z,997.81
2018-06-21T02:49:52.013Z,997.81
2018-06-21T02:51:02.087Z,997.77
2018-06-21T02:52:11.887Z,997.82
2018-06-21T02:53:21.967Z,997.81
2018-06-21T02:54:31.535Z,997.77
2018-06-21T02:55:41.606Z,997.76
2018-06-21T02:56:51.686Z,997.78
2018-06-21T02:58:01.491Z,997.76
2018-06-21T02:59:11.314Z,997.79
2018-06-21T03:00:21.388Z,997.76
2018-06-21T03:01:31.465Z,997.8
2018-06-21T03:02:41.588Z,997.76
2018-06-21T03:34:43.047Z,997.62
2018-06-21T03:35:53.110Z,997.64
2018-06-21T03:37:02.925Z,997.64
2018-06-21T03:38:12.984Z,997.65
2018-06-21T03:39:23.049Z,997.65
2018-06-21T03:40:32.869Z,997.66
2018-06-21T03:41:42.428Z,997.66
2018-06-21T03:42:52.513Z,997.69
2018-06-21T03:44:02.632Z,997.69
2018-06-21T03:45:12.422Z,997.69
2018-06-21T03:46:22.488Z,997.69
2018-06-21T03:47:32.579Z,997.67
2018-06-21T03:48:42.636Z,997.68
2018-06-21T03:49:52.711Z,997.67
2018-06-21T03:51:02.528Z,997.67
2018-06-21T03:52:12.466Z,997.68
2018-06-21T03:53:22.547Z,997.67
2018-06-21T03:54:32.616Z,997.65
2018-06-21T03:55:42.679Z,997.61
2018-06-21T03:56:52.750Z,997.57
2018-06-21T03:58:02.550Z,997.6
2018-06-21T03:59:12.614Z,997.58
2018-06-21T04:00:22.712Z,997.56
2018-06-21T04:01:32.259Z,997.57
2018-06-21T04:02:42.336Z,997.55
2018-06-21T04:03:52.411Z,997.57
2018-06-21T04:05:02.490Z,997.56
2018-06-21T04:06:12.335Z,997.59
2018-06-21T04:07:22.475Z,997.54
2018-06-21T04:08:32.285Z,997.54
2018-06-21T04:09:42.422Z,997.56
2018-06-21T04:10:52.509Z,997.49
2018-06-21T04:12:02.574Z,997.52
2018-06-21T04:13:12.112Z,997.51
2018-06-21T04:14:21.915Z,997.47
2018-06-21T04:15:32.043Z,997.49
2018-06-21T04:16:42.113Z,997.48
2018-06-21T04:17:52.192Z,997.5
2018-06-21T04:19:02.284Z,997.72
2018-06-21T04:20:12.090Z,998.2
2018-06-21T04:21:22.948Z,998.37
2018-06-21T04:22:33.037Z,998.34
2018-06-21T04:23:43.109Z,998.39
2018-06-21T04:24:53.165Z,998.28
2018-06-21T04:26:02.994Z,998.32
2018-06-21T04:27:12.808Z,998.38
2018-06-21T04:28:22.877Z,998.39
2018-06-21T04:29:32.965Z,998.36
2018-06-21T04:30:43.035Z,998.38
2018-06-21T04:31:53.128Z,998.35
2018-06-21T04:33:02.964Z,998.31
2018-06-21T04:34:13.073Z,998.23
2018-06-21T04:35:23.144Z,998.13
2018-06-21T04:36:33.224Z,998.07
2018-06-21T04:37:43.317Z,998.04
2018-06-21T04:38:53.526Z,998.02
2018-06-21T04:40:03.603Z,997.99
2018-06-21T04:41:13.696Z,997.97
2018-06-21T04:42:23.796Z,997.96
2018-06-21T04:43:33.869Z,997.94
2018-06-21T04:44:43.948Z,997.91
2018-06-21T04:45:54.120Z,997.96
2018-06-21T04:47:04.318Z,997.95
2018-06-21T04:48:14.392Z,997.95
2018-06-21T04:49:23.946Z,997.99
2018-06-21T04:50:34.032Z,998.05
2018-06-21T04:51:44.137Z,998.03
2018-06-21T04:52:53.969Z,998.05
2018-06-21T04:54:03.788Z,998.07
2018-06-21T04:55:13.880Z,998.05
2018-06-21T04:56:23.449Z,998.04
2018-06-21T04:57:33.537Z,998
2018-06-21T04:58:43.622Z,998.03
2018-06-21T04:59:53.426Z,998.04
2018-06-21T05:01:03.319Z,998.05
2018-06-21T05:02:13.242Z,998.15
2018-06-21T05:03:23.061Z,998.15
2018-06-21T05:04:33.147Z,998.16
2018-06-21T05:05:42.961Z,998.1
2018-06-21T05:06:52.762Z,998.11
2018-06-21T05:08:02.907Z,998.07
2018-06-21T05:09:13.001Z,997.98
2018-06-21T05:10:23.073Z,997.9
2018-06-21T05:11:33.146Z,997.84
2018-06-21T05:12:43.231Z,997.81
2018-06-21T05:13:53.050Z,997.79
2018-06-21T05:15:02.879Z,997.84
2018-06-21T05:16:12.987Z,997.86
2018-06-21T05:17:23.072Z,997.87
2018-06-21T05:18:33.171Z,997.87
2018-06-21T05:19:43.253Z,997.89
2018-06-21T05:20:53.332Z,997.88
2018-06-21T05:22:03.414Z,997.91
2018-06-21T05:23:13.241Z,998.02
2018-06-21T05:24:23.345Z,998.7
2018-06-21T05:25:33.494Z,999.01
2018-06-21T05:26:43.654Z,998.61
2018-06-21T05:27:53.460Z,998.67
2018-06-21T05:29:03.548Z,998.57
2018-06-21T05:30:13.637Z,998.33
2018-06-21T05:31:23.776Z,998.39
2018-06-21T05:32:33.879Z,998.57
2018-06-21T05:33:44.002Z,998.39
2018-06-21T05:34:54.074Z,998.37
2018-06-21T05:36:04.160Z,998.43
2018-06-21T05:37:14.239Z,998.39
2018-06-21T05:38:24.432Z,998.29
2018-06-21T05:39:34.513Z,998.23
2018-06-21T05:40:44.612Z,998.14
2018-06-21T05:41:54.692Z,998.19
2018-06-21T05:43:04.821Z,998.22
2018-06-21T05:44:14.898Z,998.12
2018-06-21T05:45:25.217Z,998.09
2018-06-21T05:46:35.072Z,998.09
2018-06-21T05:47:44.896Z,998.11
2018-06-21T05:48:55.025Z,998.11
2018-06-21T05:50:05.134Z,998.06
2018-06-21T05:51:15.356Z,997.95
2018-06-21T05:52:25.443Z,997.93
2018-06-21T05:53:35.280Z,997.98
2018-06-21T05:54:45.167Z,998.02
2018-06-21T05:55:55.252Z,997.9
2018-06-21T05:57:05.095Z,997.9
2018-06-21T05:58:14.968Z,997.97
2018-06-21T05:59:25.034Z,998.02
2018-06-21T06:00:35.136Z,998.01
2018-06-21T06:01:45.209Z,997.92
2018-06-21T06:02:55.149Z,997.85
2018-06-21T06:04:04.961Z,997.86
2018-06-21T06:05:15.043Z,997.82
2018-06-21T06:06:25.133Z,997.82
2018-06-21T06:07:34.952Z,997.79
2018-06-21T06:08:45.038Z,997.76
2018-06-21T06:09:54.910Z,997.79
2018-06-21T06:11:04.783Z,997.77
2018-06-21T06:12:14.919Z,997.71
2018-06-21T06:13:25.035Z,997.68
2018-06-21T06:14:35.121Z,997.71
2018-06-21T06:15:45.188Z,997.67
2018-06-21T06:16:55.275Z,997.66
2018-06-21T06:18:05.352Z,997.62
2018-06-21T06:19:15.452Z,997.61
2018-06-21T06:20:25.521Z,997.57
2018-06-21T06:21:35.606Z,997.6
2018-06-21T06:22:45.698Z,997.59
2018-06-21T06:23:55.560Z,997.57
2018-06-21T06:25:05.391Z,997.55
2018-06-21T06:26:14.967Z,997.5
2018-06-21T06:27:25.061Z,997.5
2018-06-21T06:28:34.900Z,997.46
2018-06-21T06:29:44.952Z,997.45
2018-06-21T06:30:55.033Z,997.42
2018-06-21T06:32:05.108Z,997.42
2018-06-21T06:33:15.205Z,997.42
2018-06-21T06:34:25.305Z,997.4
2018-06-21T06:35:35.447Z,997.36
2018-06-21T06:36:45.526Z,997.33
2018-06-21T06:37:55.357Z,997.27
2018-06-21T06:39:05.461Z,997.25
2018-06-21T06:40:15.551Z,997.2
2018-06-21T06:41:25.254Z,997.22
2018-06-21T06:42:35.321Z,997.21
2018-06-21T06:43:45.404Z,997.22
2018-06-21T06:44:55.235Z,997.21
2018-06-21T06:46:05.330Z,997.14
2018-06-21T06:47:15.584Z,997.19
2018-06-21T06:48:25.407Z,997.16
2018-06-21T06:49:35.499Z,997.14
2018-06-21T06:50:45.584Z,997.13
2018-06-21T06:51:55.670Z,997.13
2018-06-21T06:53:05.500Z,997.13
2018-06-21T06:54:15.312Z,997.06
2018-06-21T06:55:25.643Z,997.1
2018-06-21T06:56:35.213Z,997.02
2018-06-21T06:57:45.300Z,997.02
2018-06-21T06:58:55.444Z,996.99
2018-06-21T07:00:05.521Z,996.95
2018-06-21T07:01:15.364Z,996.96
2018-06-21T07:02:25.194Z,996.93
2018-06-21T07:03:35.279Z,996.92
2018-06-21T07:04:45.364Z,996.96
2018-06-21T07:05:55.188Z,996.98
2018-06-21T07:07:05.262Z,996.94
2018-06-21T07:08:15.139Z,996.93
2018-06-21T07:09:25.588Z,996.9
2018-06-21T07:10:35.477Z,996.88
2018-06-21T07:11:45.582Z,996.89
2018-06-21T07:12:55.656Z,996.88
2018-06-21T07:14:05.756Z,996.87
2018-06-21T07:15:16.262Z,996.83
2018-06-21T07:16:26.356Z,996.85
2018-06-21T07:17:36.175Z,996.8
2018-06-21T07:18:45.997Z,996.8
2018-06-21T07:19:56.089Z,996.79
2018-06-21T07:21:06.175Z,996.74
2018-06-21T07:22:16.047Z,996.76
2018-06-21T07:23:26.123Z,996.74
2018-06-21T07:24:35.930Z,996.73
2018-06-21T07:25:46.027Z,996.72
2018-06-21T07:26:55.861Z,996.74
2018-06-21T07:28:06.130Z,996.7
2018-06-21T07:29:16.213Z,996.7
2018-06-21T07:30:26.304Z,996.67
2018-06-21T07:31:36.420Z,996.69
2018-06-21T07:32:46.528Z,996.63
2018-06-21T07:33:56.658Z,996.65
2018-06-21T07:35:06.737Z,996.62
2018-06-21T07:36:16.561Z,996.59
2018-06-21T07:37:26.445Z,996.64
2018-06-21T07:38:36.562Z,996.64
2018-06-21T07:39:46.678Z,996.62
2018-06-21T07:40:56.773Z,996.61
2018-06-21T07:42:06.581Z,996.63
2018-06-21T07:43:16.147Z,996.6
2018-06-21T07:44:26.218Z,996.59
2018-06-21T07:45:36.033Z,996.55
2018-06-21T07:46:46.178Z,996.56
2018-06-21T07:47:56.233Z,996.54
2018-06-21T07:49:06.327Z,996.53
2018-06-21T07:50:16.159Z,996.51
2018-06-21T07:51:26.309Z,996.49
2018-06-21T07:52:36.386Z,996.48
2018-06-21T07:53:46.488Z,996.48
2018-06-21T07:54:57.231Z,996.44
2018-06-21T07:56:07.343Z,996.42
2018-06-21T07:57:17.535Z,996.41
2018-06-21T07:58:27.375Z,996.42
2018-06-21T07:59:37.472Z,996.43
2018-06-21T08:00:47.818Z,996.4
2018-06-21T08:01:57.671Z,996.45
2018-06-21T08:03:07.766Z,996.4
2018-06-21T08:04:17.874Z,996.42
2018-06-21T08:05:27.718Z,996.39
2018-06-21T08:06:37.824Z,996.37
2018-06-21T08:07:47.936Z,996.36
2018-06-21T08:08:58.390Z,996.38
2018-06-21T08:10:08.662Z,996.37
2018-06-21T08:11:18.790Z,996.31
2018-06-21T08:12:28.930Z,996.34
2018-06-21T08:13:39.276Z,996.29
2018-06-21T08:14:49.444Z,996.28
2018-06-21T08:16:00.058Z,996.28
2018-06-21T08:17:09.916Z,996.28
2018-06-21T08:18:20.075Z,996.24
2018-06-21T08:19:30.235Z,996.25
2018-06-21T08:20:40.839Z,996.25
2018-06-21T08:21:51.258Z,996.22
2018-06-21T08:23:01.580Z,996.21
2018-06-21T08:24:11.739Z,996.15
2018-06-21T08:25:21.639Z,996.17
2018-06-21T08:26:31.846Z,996.16
2018-06-21T08:27:42.401Z,996.09
2018-06-21T08:28:52.845Z,996.06
2018-06-21T08:30:03.037Z,996.11
2018-06-21T08:31:13.322Z,996.08
2018-06-21T08:32:23.423Z,996.05
2018-06-21T08:33:33.532Z,996.01
2018-06-21T08:34:43.616Z,995.99
2018-06-21T08:35:53.727Z,995.99
2018-06-21T08:37:04.306Z,995.98
2018-06-21T08:38:14.855Z,996
2018-06-21T08:39:25.864Z,995.93
2018-06-21T08:40:35.963Z,995.94
2018-06-21T08:41:46.404Z,995.97
2018-06-21T08:42:56.774Z,995.98
2018-06-21T08:44:06.510Z,995.94
2018-06-21T08:45:16.998Z,995.96
2018-06-21T08:46:27.572Z,995.96
2018-06-21T08:47:37.334Z,995.96
2018-06-21T08:48:47.697Z,995.96
2018-06-21T08:49:58.194Z,995.9
2018-06-21T08:51:08.357Z,995.87
2018-06-21T08:52:19.280Z,995.9
2018-06-21T08:53:29.270Z,995.87
2018-06-21T08:54:39.510Z,995.89
2018-06-21T08:55:50.061Z,995.88
2018-06-21T08:57:00.239Z,995.81
2018-06-21T08:58:10.777Z,995.83
2018-06-21T08:59:21.405Z,995.82
2018-06-21T09:00:32.023Z,995.8
2018-06-21T09:01:41.856Z,995.81
2018-06-21T09:02:51.977Z,995.78
2018-06-21T09:04:02.068Z,995.77
2018-06-21T09:05:12.145Z,995.73
2018-06-21T09:06:22.262Z,995.77
2018-06-21T09:07:32.357Z,995.75
2018-06-21T09:08:42.185Z,995.77
2018-06-21T09:09:52.281Z,995.74
2018-06-21T09:11:02.429Z,995.75
2018-06-21T09:12:12.274Z,995.72
2018-06-21T09:13:22.367Z,995.71
2018-06-21T09:14:32.001Z,995.72
2018-06-21T09:15:42.192Z,995.68
2018-06-21T09:16:52.335Z,995.61
2018-06-21T09:18:02.421Z,995.6
2018-06-21T09:19:12.524Z,995.6
2018-06-21T09:20:22.634Z,995.61
2018-06-21T09:21:32.776Z,995.6
2018-06-21T09:22:42.961Z,995.58
2018-06-21T09:23:53.048Z,995.57
2018-06-21T09:25:02.625Z,995.59
2018-06-21T09:26:12.470Z,995.56
2018-06-21T09:27:22.041Z,995.52
2018-06-21T09:28:31.941Z,995.53
2018-06-21T09:29:41.781Z,995.53
2018-06-21T09:30:51.858Z,995.55
2018-06-21T09:32:01.691Z,995.48
2018-06-21T09:33:11.542Z,995.46
2018-06-21T09:34:21.893Z,995.48
2018-06-21T09:35:31.987Z,995.46
2018-06-21T09:36:42.096Z,995.43
2018-06-21T09:37:52.186Z,995.4
2018-06-21T09:39:02.290Z,995.4
2018-06-21T09:40:12.441Z,995.38
2018-06-21T09:41:22.535Z,995.39
2018-06-21T09:42:32.617Z,995.37
2018-06-21T09:43:50.298Z,995.4
2018-06-21T09:45:11.913Z,995.35
2018-06-21T09:46:22.012Z,995.4
2018-06-21T09:47:42.035Z,995.38
2018-06-21T09:48:52.120Z,995.36
2018-06-21T09:50:01.981Z,995.31
2018-06-21T09:51:12.130Z,995.35
2018-06-21T09:52:22.244Z,995.31
2018-06-21T09:53:32.241Z,995.27
2018-06-21T09:54:42.349Z,995.22
2018-06-21T09:55:52.434Z,995.26
2018-06-21T09:57:01.990Z,995.25
2018-06-21T09:58:12.080Z,995.25
2018-06-21T09:59:22.240Z,995.24
2018-06-21T10:00:32.324Z,995.24
2018-06-21T10:01:42.414Z,995.22
2018-06-21T10:02:52.255Z,995.2
2018-06-21T10:04:02.316Z,995.19
2018-06-21T10:05:12.135Z,995.13
2018-06-21T10:06:22.238Z,995.14
2018-06-21T10:07:32.061Z,995.1
2018-06-21T10:08:41.888Z,995.13
2018-06-21T10:09:52.223Z,995.09
2018-06-21T10:11:01.783Z,995.08
2018-06-21T10:12:11.874Z,995.06
2018-06-21T10:13:21.977Z,995.02
2018-06-21T10:14:32.090Z,995.04
2018-06-21T10:15:41.733Z,995.03
2018-06-21T10:16:52.043Z,994.97
2018-06-21T10:18:02.171Z,994.98
2018-06-21T10:19:13.439Z,994.94
2018-06-21T10:20:23.588Z,994.94
2018-06-21T10:21:33.398Z,994.93
2018-06-21T10:22:43.488Z,994.87
2018-06-21T10:23:53.592Z,994.88
2018-06-21T10:25:03.465Z,994.86
2018-06-21T10:26:13.556Z,994.7
2018-06-21T10:27:23.659Z,994.73
2018-06-21T10:28:33.752Z,994.71
2018-06-21T10:29:43.833Z,994.71
2018-06-21T10:30:53.977Z,994.76
2018-06-21T10:32:04.135Z,994.73
2018-06-21T10:33:14.236Z,994.64
2018-06-21T10:34:24.098Z,994.66
2018-06-21T10:35:34.176Z,994.58
2018-06-21T10:36:44.273Z,994.54
2018-06-21T10:37:54.361Z,994.59
2018-06-21T10:39:04.202Z,994.54
2018-06-21T10:40:14.054Z,994.49
2018-06-21T10:41:24.000Z,994.45
2018-06-21T10:42:34.163Z,994.4
2018-06-21T10:43:44.161Z,994.47
2018-06-21T10:44:54.256Z,994.45
2018-06-21T10:46:04.346Z,994.41
2018-06-21T10:47:14.436Z,994.39
2018-06-21T10:48:24.538Z,994.38
2018-06-21T10:49:34.634Z,994.37
2018-06-21T10:50:44.734Z,994.26
2018-06-21T10:51:54.814Z,994.33
2018-06-21T10:53:04.909Z,994.19
2018-06-21T10:54:15.005Z,994.19
2018-06-21T10:55:25.115Z,994.18
2018-06-21T10:56:35.231Z,994.22
2018-06-21T10:57:45.316Z,994.32
2018-06-21T10:58:55.397Z,994.29
2018-06-21T11:00:05.534Z,994.27
2018-06-21T11:01:15.636Z,994.2
2018-06-21T11:02:25.484Z,994.2
2018-06-21T11:03:35.582Z,994.33
2018-06-21T11:04:45.431Z,994.31
2018-06-21T11:05:55.517Z,994.35
2018-06-21T11:07:05.357Z,994.26
2018-06-21T11:08:15.448Z,994.24
2018-06-21T11:09:25.267Z,994.24
2018-06-21T11:10:35.354Z,994.29
2018-06-21T11:11:45.455Z,994.2
2018-06-21T11:12:55.556Z,994.14
2018-06-21T11:14:05.642Z,994.06
2018-06-21T11:15:15.731Z,994.06
2018-06-21T11:16:25.832Z,994.1
2018-06-21T11:17:36.998Z,994.05
2018-06-21T11:18:47.127Z,994.05
2018-06-21T11:19:57.213Z,994.07
2018-06-21T11:21:07.314Z,994.05
2018-06-21T11:22:17.404Z,994.09
2018-06-21T11:23:27.511Z,994.06
2018-06-21T11:24:37.605Z,994.06
2018-06-21T11:25:47.469Z,993.99
2018-06-21T11:26:57.312Z,993.93
2018-06-21T11:28:07.276Z,993.93
2018-06-21T11:29:17.534Z,993.89
2018-06-21T11:30:27.618Z,993.94
2018-06-21T11:31:37.727Z,993.94
2018-06-21T11:32:47.821Z,993.91
2018-06-21T11:33:57.911Z,993.82
2018-06-21T11:35:08.013Z,993.82
2018-06-21T11:36:17.843Z,993.79
2018-06-21T11:37:27.936Z,993.73
2018-06-21T11:38:38.023Z,993.76
2018-06-21T11:39:48.153Z,993.75
2018-06-21T11:40:57.971Z,993.7
2018-06-21T11:42:08.078Z,993.73
2018-06-21T11:43:18.410Z,993.67
2018-06-21T11:44:28.484Z,993.63
2018-06-21T11:45:38.591Z,993.63
2018-06-21T11:46:48.463Z,993.66
2018-06-21T11:47:58.970Z,993.62
2018-06-21T11:49:09.080Z,993.63
2018-06-21T11:50:19.188Z,993.68
2018-06-21T11:51:29.267Z,993.65
2018-06-21T11:52:39.413Z,993.65
2018-06-21T11:53:49.233Z,993.68
2018-06-21T11:54:59.410Z,993.66
2018-06-21T11:56:09.507Z,993.59
2018-06-21T11:57:19.083Z,993.6
2018-06-21T11:58:28.924Z,993.59
2018-06-21T11:59:38.764Z,993.61
2018-06-21T12:00:48.623Z,993.54
2018-06-21T12:01:58.705Z,993.53
2018-06-21T12:03:08.854Z,993.52
2018-06-21T12:04:18.464Z,993.53
2018-06-21T12:05:28.281Z,993.49
2018-06-21T12:06:37.852Z,993.47
2018-06-21T12:07:47.959Z,993.47
2018-06-21T12:08:58.069Z,993.43
2018-06-21T12:10:08.180Z,993.47
2018-06-21T12:11:18.274Z,993.45
2018-06-21T12:12:28.353Z,993.45
2018-06-21T12:13:37.931Z,993.43
2018-06-21T12:14:48.017Z,993.48
2018-06-21T12:15:58.354Z,993.33
2018-06-21T12:17:08.442Z,993.39
2018-06-21T12:18:18.562Z,993.39
2018-06-21T12:19:28.676Z,993.39
2018-06-21T12:20:38.791Z,993.32
2018-06-21T12:21:49.219Z,993.25
2018-06-21T12:22:59.459Z,993.28
2018-06-21T12:24:09.291Z,993.4
2018-06-21T12:25:19.390Z,993.28
2018-06-21T12:26:29.491Z,993.29
2018-06-21T12:27:39.597Z,993.27
2018-06-21T12:28:49.700Z,993.35
2018-06-21T12:29:59.531Z,993.2
2018-06-21T12:31:09.640Z,993.18
2018-06-21T12:32:19.821Z,993.13
2018-06-21T12:33:29.944Z,993.13
2018-06-21T12:34:40.031Z,993.15
2018-06-21T12:35:50.131Z,993.16
2018-06-21T12:37:00.207Z,993.11
2018-06-21T12:38:10.350Z,993.1
2018-06-21T12:39:20.245Z,993.03
2018-06-21T12:40:30.076Z,993.01
2018-06-21T12:41:40.387Z,993.02
2018-06-21T12:42:50.492Z,992.95
2018-06-21T12:44:00.657Z,993.05
2018-06-21T12:45:10.774Z,993.04
2018-06-21T12:46:20.879Z,992.99
2018-06-21T12:47:31.433Z,992.89
2018-06-21T12:48:41.547Z,992.87
2018-06-21T12:49:51.374Z,992.87
2018-06-21T12:51:01.489Z,992.8
2018-06-21T12:52:11.348Z,992.79
2018-06-21T12:53:21.215Z,992.76
2018-06-21T12:54:31.324Z,992.76
2018-06-21T12:55:41.456Z,992.78
2018-06-21T12:56:51.582Z,992.81
2018-06-21T12:58:01.748Z,992.76
2018-06-21T12:59:11.796Z,992.79
2018-06-21T13:00:21.902Z,992.73
2018-06-21T13:01:31.992Z,992.73
2018-06-21T13:02:41.841Z,992.75
2018-06-21T13:03:51.945Z,992.65
2018-06-21T13:05:02.028Z,992.64
2018-06-21T13:06:12.119Z,992.57
2018-06-21T13:07:22.306Z,992.56
2018-06-21T13:08:32.402Z,992.57
2018-06-21T13:09:42.535Z,992.69
2018-06-21T13:10:52.101Z,992.69
2018-06-21T13:12:02.226Z,992.59
2018-06-21T13:13:12.314Z,992.54
2018-06-21T13:14:22.426Z,992.57
2018-06-21T13:15:32.330Z,992.57
2018-06-21T13:16:42.552Z,992.59
2018-06-21T13:17:52.654Z,992.54
2018-06-21T13:19:02.269Z,992.55
2018-06-21T13:20:12.094Z,992.53
2018-06-21T13:21:21.648Z,992.5
2018-06-21T13:22:31.492Z,992.57
2018-06-21T13:23:41.587Z,992.55
2018-06-21T13:24:51.693Z,992.52
2018-06-21T13:26:01.524Z,992.5
2018-06-21T13:27:11.625Z,992.5
2018-06-21T13:28:21.732Z,992.47
2018-06-21T13:29:31.564Z,992.46
2018-06-21T13:30:41.766Z,992.48
2018-06-21T13:31:51.594Z,992.47
2018-06-21T13:33:01.436Z,992.41
2018-06-21T13:34:11.535Z,992.5
2018-06-21T13:35:21.614Z,992.4
2018-06-21T13:36:31.895Z,992.39
2018-06-21T13:37:41.982Z,992.38
2018-06-21T13:38:51.834Z,992.4
2018-06-21T13:40:01.979Z,992.41
2018-06-21T13:41:12.078Z,992.41
2018-06-21T13:42:22.172Z,992.43
2018-06-21T13:43:32.282Z,992.39
2018-06-21T13:44:42.372Z,992.37
2018-06-21T13:45:52.481Z,992.38
2018-06-21T13:47:02.581Z,992.4
2018-06-21T13:48:13.181Z,992.43
2018-06-21T13:49:23.287Z,992.42
2018-06-21T13:50:33.382Z,992.37
2018-06-21T13:51:43.487Z,992.43
2018-06-21T13:52:53.583Z,992.41
2018-06-21T13:54:03.715Z,992.29
2018-06-21T13:55:13.812Z,992.23
2018-06-21T13:56:23.916Z,992.2
2018-06-21T13:57:34.042Z,992.25
2018-06-21T13:58:44.144Z,992.22
2018-06-21T13:59:53.976Z,992.24
2018-06-21T14:01:04.080Z,992.25
2018-06-21T14:02:13.913Z,992.25
2018-06-21T14:03:23.771Z,992.25
2018-06-21T14:04:33.872Z,992.1
2018-06-21T14:05:43.990Z,992.13
2018-06-21T14:06:54.086Z,992.16
2018-06-21T14:08:04.487Z,992.21
2018-06-21T14:09:15.614Z,992.16
2018-06-21T14:10:25.705Z,992.19
2018-06-21T14:11:35.541Z,992.18
2018-06-21T14:12:45.632Z,992.11
2018-06-21T14:13:55.708Z,992.07
2018-06-21T14:15:05.556Z,992.07
2018-06-21T14:16:15.660Z,992.07
2018-06-21T14:17:25.773Z,992.06
2018-06-21T14:18:35.897Z,992.11
2018-06-21T14:19:46.001Z,992.06
2018-06-21T14:20:56.201Z,992.02
2018-06-21T14:22:06.330Z,992.01
2018-06-21T14:23:16.230Z,992.04
2018-06-21T14:24:26.049Z,992.02
2018-06-21T14:25:36.246Z,992.04
2018-06-21T14:26:46.365Z,991.98
2018-06-21T14:27:56.446Z,991.95
2018-06-21T14:29:06.302Z,991.93
2018-06-21T14:30:16.147Z,991.9
2018-06-21T14:31:25.998Z,991.98
2018-06-21T14:32:35.825Z,991.96
2018-06-21T14:33:45.928Z,991.93
2018-06-21T14:34:55.766Z,991.9
2018-06-21T14:36:05.921Z,991.84
2018-06-21T14:37:16.021Z,991.87
2018-06-21T14:38:26.108Z,991.88
2018-06-21T14:39:35.940Z,991.91
2018-06-21T14:40:46.053Z,991.9
2018-06-21T14:41:55.924Z,991.89
2018-06-21T14:43:06.022Z,991.85
2018-06-21T14:44:16.111Z,991.81
2018-06-21T14:45:25.961Z,991.82
2018-06-21T14:46:36.240Z,991.74
2018-06-21T14:47:46.422Z,991.79
2018-06-21T14:48:57.192Z,991.74
2018-06-21T14:50:07.480Z,991.72
2018-06-21T14:51:17.561Z,991.73
2018-06-21T14:52:27.831Z,991.75
2018-06-21T14:53:38.482Z,991.69
2018-06-21T14:54:48.943Z,991.64
2018-06-21T14:55:59.081Z,991.68
2018-06-21T14:57:09.249Z,991.65
2018-06-21T14:58:19.332Z,991.61
2018-06-21T14:59:29.412Z,991.64
2018-06-21T15:00:38.986Z,991.61
2018-06-21T15:01:49.073Z,991.59
2018-06-21T15:02:59.189Z,991.53
2018-06-21T15:04:09.291Z,991.5
2018-06-21T15:05:19.411Z,991.43
2018-06-21T15:06:29.626Z,991.39
2018-06-21T15:07:39.751Z,991.39